createdAt,value
2023-03-20T00:02:27.267Z,4.00
2023-03-20T00:07:27.507Z,4.20
2023-03-20T00:12:27.282Z,4.40
2023-03-20T00:17:25.728Z,4.30
2023-03-20T00:22:23.955Z,4.43
2023-03-20T00:27:23.555Z,4.83
2023-03-20T00:32:21.572Z,5.23
2023-03-20T00:37:19.952Z,4.47
2023-03-20T00:42:24.157Z,4.10
2023-03-20T00:47:24.637Z,4.90
2023-03-20T00:52:23.964Z,5.40
2023-03-20T00:57:27.190Z,4.67
2023-03-20T01:02:27.229Z,4.53
2023-03-20T01:07:25.779Z,4.67
2023-03-20T01:12:25.385Z,5.00
2023-03-20T01:17:25.369Z,5.07
2023-03-20T01:22:23.893Z,4.90
2023-03-20T01:27:22.515Z,4.63
2023-03-20T01:32:22.138Z,5.60
2023-03-20T01:37:26.363Z,4.97
2023-03-20T01:42:25.223Z,5.13
2023-03-20T01:47:26.225Z,5.20
2023-03-20T01:52:28.654Z,4.40
2023-03-20T01:57:27.365Z,5.10
2023-03-20T02:02:32.045Z,4.63
2023-03-20T02:07:31.300Z,5.50
2023-03-20T02:12:41.643Z,5.00
2023-03-20T02:17:43.929Z,5.30
2023-03-20T02:23:37.577Z,4.97
2023-03-20T02:29:28.688Z,4.87
2023-03-20T02:35:04.503Z,5.80
2023-03-20T02:40:14.948Z,5.90
2023-03-20T02:45:18.598Z,5.70
2023-03-20T02:50:28.490Z,5.90
2023-03-20T02:55:34.442Z,5.10
2023-03-20T03:00:37.851Z,5.17
2023-03-20T03:05:41.737Z,4.97
2023-03-20T03:10:45.407Z,5.40
2023-03-20T03:15:47.378Z,4.90
2023-03-20T03:20:48.246Z,5.40
2023-03-20T03:25:48.553Z,5.30
2023-03-20T03:30:47.864Z,5.20
2023-03-20T03:35:47.024Z,6.50
2023-03-20T03:40:50.689Z,5.57
2023-03-20T03:45:54.315Z,6.60
2023-03-20T03:50:56.859Z,6.23
2023-03-20T03:56:02.677Z,6.70
2023-03-20T04:01:03.962Z,6.20
2023-03-20T04:06:04.253Z,6.00
2023-03-20T04:11:04.048Z,6.63
2023-03-20T04:16:02.370Z,6.90
2023-03-20T04:21:01.842Z,7.13
2023-03-20T04:26:00.480Z,7.10
2023-03-20T04:31:03.109Z,7.07
2023-03-20T04:36:21.673Z,7.83
2023-03-20T04:41:21.355Z,7.43
2023-03-20T04:46:26.557Z,8.27
2023-03-20T04:51:25.518Z,7.40
2023-03-20T04:56:25.062Z,9.70
2023-03-20T05:01:28.652Z,9.83
2023-03-20T05:06:26.983Z,9.03
2023-03-20T05:11:25.809Z,9.33
2023-03-20T05:16:39.088Z,9.07
2023-03-20T05:21:56.713Z,10.43
2023-03-20T05:27:13.670Z,11.23
2023-03-20T05:32:13.799Z,11.13
2023-03-20T05:37:30.388Z,11.70
2023-03-20T05:42:34.537Z,10.43
2023-03-20T05:47:49.141Z,11.23
2023-03-20T05:52:57.018Z,11.73
2023-03-20T05:58:06.307Z,11.60
2023-03-20T06:03:35.427Z,10.93
2023-03-20T06:13:58.608Z,12.60
2023-03-20T06:19:07.068Z,11.13
2023-03-20T06:24:06.052Z,11.90
2023-03-20T06:29:04.529Z,13.40
2023-03-20T06:34:06.286Z,14.20
2023-03-20T06:39:13.271Z,16.50
2023-03-20T06:44:13.001Z,14.63
2023-03-20T06:49:35.548Z,16.73
2023-03-20T06:54:33.750Z,18.10
2023-03-20T06:59:31.965Z,19.67
2023-03-20T07:04:30.077Z,18.67
2023-03-20T07:09:33.390Z,18.37
2023-03-20T07:14:32.853Z,19.10
2023-03-20T07:19:38.298Z,19.43
2023-03-20T07:24:39.102Z,20.80
2023-03-20T07:29:37.989Z,19.73
2023-03-20T07:34:43.027Z,24.33
2023-03-20T07:39:42.881Z,23.00
2023-03-20T07:45:09.459Z,17.53
2023-03-20T07:50:08.482Z,18.90
2023-03-20T07:55:09.252Z,18.97
2023-03-20T08:00:10.067Z,18.80
2023-03-20T08:05:11.568Z,17.80
2023-03-20T08:10:12.286Z,18.67
2023-03-20T08:15:11.316Z,17.93
2023-03-20T08:20:11.068Z,16.90
2023-03-20T08:25:12.248Z,18.50
2023-03-20T08:30:13.119Z,17.30
2023-03-20T08:35:29.664Z,15.27
2023-03-20T08:40:32.013Z,16.43
2023-03-20T08:45:30.242Z,15.30
2023-03-20T08:50:28.636Z,15.40
2023-03-20T08:55:26.913Z,15.90
2023-03-20T09:00:27.678Z,14.60
2023-03-20T09:05:26.123Z,15.03
2023-03-20T09:10:24.349Z,14.20
2023-03-20T09:15:22.553Z,14.83
2023-03-20T09:20:22.518Z,12.97
2023-03-20T09:25:20.847Z,13.30
2023-03-20T09:30:19.182Z,13.37
2023-03-20T09:35:17.838Z,13.80
2023-03-20T09:40:27.134Z,13.97
2023-03-20T09:45:35.875Z,13.30
2023-03-20T09:50:39.614Z,13.03
2023-03-20T09:55:43.064Z,14.23
2023-03-20T10:00:44.359Z,12.17
2023-03-20T10:05:47.278Z,13.47
2023-03-20T10:10:53.261Z,12.50
2023-03-20T10:15:57.608Z,12.00
2023-03-20T10:21:04.819Z,11.13
2023-03-20T10:26:10.858Z,9.70
2023-03-20T10:31:23.082Z,9.53
2023-03-20T10:36:39.212Z,8.37
2023-03-20T10:41:41.209Z,8.70
2023-03-20T10:46:43.637Z,8.80
2023-03-20T10:51:47.571Z,8.20
2023-03-20T10:56:49.879Z,7.23
2023-03-20T11:01:48.101Z,8.23
2023-03-20T11:06:52.839Z,6.70
2023-03-20T11:11:56.471Z,6.97
2023-03-20T11:16:56.670Z,7.27
2023-03-20T11:22:01.115Z,6.80
2023-03-20T11:27:08.671Z,6.63
2023-03-20T11:32:09.896Z,6.80
2023-03-20T11:37:23.146Z,6.60
2023-03-20T11:42:27.053Z,7.13
2023-03-20T11:47:28.484Z,7.77
2023-03-20T11:52:29.679Z,8.03
2023-03-20T11:57:38.050Z,6.87
2023-03-20T12:02:38.386Z,7.70
2023-03-20T12:07:37.774Z,7.77
2023-03-20T12:12:43.377Z,8.50
2023-03-20T12:17:47.315Z,7.30
2023-03-20T12:22:54.284Z,6.47
2023-03-20T12:28:02.289Z,7.43
2023-03-20T12:33:08.313Z,6.90
2023-03-20T12:38:19.754Z,7.83
2023-03-20T12:43:25.680Z,8.40
2023-03-20T12:48:42.868Z,8.37
2023-03-20T12:53:54.371Z,9.40
2023-03-20T12:58:59.925Z,8.40
2023-03-20T13:04:29.838Z,8.40
2023-03-20T13:10:05.089Z,10.20
2023-03-20T13:15:17.859Z,9.00
2023-03-20T13:20:28.184Z,9.53
2023-03-20T13:25:43.654Z,8.93
2023-03-20T13:30:50.466Z,9.67
2023-03-20T13:35:53.071Z,9.90
2023-03-20T13:40:56.426Z,10.20
2023-03-20T13:46:02.745Z,10.00
2023-03-20T13:51:09.187Z,10.57
2023-03-20T13:56:15.732Z,9.83
2023-03-20T14:01:25.407Z,10.77
2023-03-20T14:06:45.840Z,11.53
2023-03-20T14:11:44.129Z,11.53
2023-03-20T14:16:44.133Z,10.20
2023-03-20T14:21:47.497Z,11.00
2023-03-20T14:26:50.428Z,10.13
2023-03-20T14:31:52.378Z,10.47
2023-03-20T14:36:58.954Z,12.00
2023-03-20T14:42:06.514Z,11.60
2023-03-20T14:47:11.324Z,12.40
2023-03-20T14:52:24.229Z,12.57
2023-03-20T14:57:37.682Z,10.97
2023-03-20T15:02:49.611Z,10.67
2023-03-20T15:07:47.896Z,12.97
2023-03-20T15:12:47.135Z,11.80
2023-03-20T15:17:48.472Z,12.50
2023-03-20T15:22:51.340Z,13.60
2023-03-20T15:27:51.058Z,14.20
2023-03-20T15:32:55.426Z,12.37
2023-03-20T15:37:55.218Z,12.13
2023-03-20T15:42:58.330Z,10.50
2023-03-20T15:48:07.306Z,12.23
2023-03-20T15:53:06.977Z,13.00
2023-03-20T15:58:06.183Z,11.60
2023-03-20T16:03:09.754Z,10.00
2023-03-20T16:08:15.777Z,11.57
2023-03-20T16:13:17.239Z,12.10
2023-03-20T16:18:18.853Z,11.60
2023-03-20T16:23:27.695Z,11.10
2023-03-20T16:28:27.494Z,12.40
2023-03-20T16:33:27.120Z,12.00
2023-03-20T16:38:27.185Z,12.33
2023-03-20T16:43:31.328Z,11.27
2023-03-20T16:48:32.929Z,11.60
2023-03-20T16:53:38.146Z,12.73
2023-03-20T16:58:40.078Z,12.87
2023-03-20T17:03:49.275Z,11.73
2023-03-20T17:14:06.678Z,11.40
2023-03-20T17:19:10.591Z,12.47
2023-03-20T17:24:09.011Z,11.83
2023-03-20T17:29:07.531Z,12.60
2023-03-20T17:34:07.338Z,12.27
2023-03-20T17:39:06.015Z,12.20
2023-03-20T17:44:04.285Z,11.67
2023-03-20T17:49:05.000Z,13.30
2023-03-20T17:54:04.582Z,13.07
2023-03-20T17:59:03.864Z,12.83
2023-03-20T18:04:02.097Z,14.07
2023-03-20T18:09:01.993Z,14.07
2023-03-20T18:14:02.296Z,13.50
2023-03-20T18:19:01.976Z,14.03
2023-03-20T18:24:00.200Z,12.93
2023-03-20T18:28:58.466Z,14.07
2023-03-20T18:33:58.040Z,13.43
2023-03-20T18:38:56.358Z,13.13
2023-03-20T18:43:55.707Z,12.87
2023-03-20T18:48:54.527Z,14.83
2023-03-20T18:53:54.327Z,14.83
2023-03-20T18:58:53.803Z,12.87
2023-03-20T19:03:53.987Z,13.27
2023-03-20T19:08:53.868Z,12.70
2023-03-20T19:13:54.737Z,15.13
2023-03-20T19:18:53.855Z,15.70
2023-03-20T19:23:53.962Z,14.20
2023-03-20T19:28:52.933Z,13.20
2023-03-20T19:33:51.713Z,14.00
2023-03-20T19:38:49.981Z,13.80
2023-03-20T19:43:53.419Z,13.33
2023-03-20T19:48:53.675Z,13.90
2023-03-20T19:53:56.684Z,15.43
2023-03-20T19:58:56.396Z,11.93
2023-03-20T20:03:55.148Z,11.83
2023-03-20T20:08:53.460Z,12.40
2023-03-20T20:14:05.726Z,12.27
2023-03-20T20:19:06.341Z,12.90
2023-03-20T20:24:04.599Z,11.57
2023-03-20T20:29:02.824Z,11.40
2023-03-20T20:34:48.986Z,10.60
2023-03-20T20:39:21.293Z,10.07
2023-03-20T20:44:19.959Z,10.93
2023-03-20T20:49:20.269Z,10.67
2023-03-20T20:54:20.050Z,11.60
2023-03-20T20:59:18.260Z,11.03
2023-03-20T21:04:16.597Z,10.60
2023-03-20T21:09:14.860Z,10.67
2023-03-20T21:14:15.917Z,10.50
2023-03-20T21:19:14.178Z,10.40
2023-03-20T21:24:31.119Z,10.90
2023-03-20T21:29:31.797Z,11.60
2023-03-20T21:34:30.254Z,12.13
2023-03-20T21:39:29.752Z,11.40
2023-03-20T21:56:02.551Z,12.10
2023-03-20T22:12:01.845Z,10.63
2023-03-20T22:23:07.651Z,12.57
2023-03-20T22:33:09.844Z,12.53
2023-03-20T22:44:07.723Z,13.33
2023-03-20T22:48:17.263Z,13.57
2023-03-20T22:53:17.210Z,13.20
2023-03-20T22:58:17.399Z,13.80
2023-03-20T23:03:26.187Z,13.67
2023-03-20T23:08:36.073Z,13.57
2023-03-20T23:13:34.751Z,13.73
2023-03-20T23:18:32.962Z,13.43
2023-03-20T23:23:33.454Z,13.43
2023-03-20T23:28:33.149Z,13.47
2023-03-20T23:33:31.658Z,13.40
2023-03-20T23:38:30.144Z,15.10
2023-03-20T23:43:28.413Z,14.03
2023-03-20T23:48:28.336Z,14.23
2023-03-20T23:53:27.534Z,13.83
2023-03-20T23:58:27.742Z,13.70
